Flight Track Log - Related Links

Times and Time Zones

All times are in EDT time to prevent confusion due to time zone crossing. See the EGF4247 flight status page for this flight to view local times or setup timezone preferences in your user account.

Time Position Orientation Groundspeed Altitude Reporting Facility
EDT Latitude Longitude Course Direction KTS MPH feet Rate Location/Type
Tue 03:42:39 PM 42.9333 -78.7500 270° West 168 193 1,400  Level Buffalo TRACON
Tue 03:43:51 PM 42.8833 -78.8167 224° Southwest 211 243 3,900 2,273 Climbing Buffalo TRACON
Tue 03:44:51 PM 42.8833 -78.9000 270° West 236 272 6,400 2,444 Climbing Buffalo TRACON
Tue 03:45:00 PM 42.9513 -79.0824 277° West  Level FlightAware Approximate
Tue 03:45:12 PM 42.8833 -78.9000 270° West 220 253 7,200  Level Toronto Center
Tue 03:46:00 PM 42.9615 -79.2045 277° West  Level FlightAware Approximate
Tue 03:46:12 PM 42.9000 -79.0000 283° West 230 265 9,400  Level Toronto Center
Tue 03:47:00 PM 42.9667 -79.3269 270° West  Level FlightAware Approximate
Tue 03:47:12 PM 42.9167 -79.0833 285° West 250 288 11,200  Level Toronto Center
Tue 03:48:12 PM 42.9333 -79.1833 283° West 270 311 12,900 1,700 Climbing Toronto Center
Tue 03:49:12 PM 42.9833 -79.2667 309° West 280 322 14,600 1,850 Climbing Toronto Center
Tue 03:50:12 PM 43.0500 -79.3167 331° Northwest 290 334 16,600 1,850 Climbing Toronto Center
Tue 03:51:12 PM 43.1167 -79.3833 324° Northwest 290 334 18,300 1,200 Climbing Toronto Center
Tue 03:52:12 PM 43.1167 -79.5000 270° West 290 334 19,000 1,000 Climbing Toronto Center
Tue 03:53:12 PM 43.1167 -79.6167 270° West 310 357 20,300 1,600 Climbing Toronto Center
Tue 03:54:12 PM 43.1000 -79.7167 257° West 310 357 22,200 1,800 Climbing Toronto Center
Tue 03:55:12 PM 43.1000 -79.8333 270° West 310 357 23,900 1,550 Climbing Toronto Center
Tue 03:56:12 PM 43.1000 -79.9500 270° West 310 357 25,300 1,350 Climbing Toronto Center
Tue 03:57:12 PM 43.0833 -80.0667 259° West 320 368 26,600 1,250 Climbing Toronto Center
Tue 03:58:12 PM 43.0833 -80.2000 270° West 320 368 27,800 1,050 Climbing Toronto Center
Tue 03:59:12 PM 43.0833 -80.3333 270° West 330 380 28,700 900 Climbing Toronto Center
Tue 04:00:12 PM 43.0667 -80.4500 259° West 340 391 29,600 950 Climbing Toronto Center
Tue 04:01:12 PM 43.0667 -80.5833 270° West 350 403 30,600 950 Climbing Toronto Center
Tue 04:02:12 PM 43.0500 -80.7333 261° West 360 414 31,500 700 Climbing Toronto Center
Tue 04:03:12 PM 43.0333 -80.8667 260° West 370 426 32,000 250 Climbing Toronto Center
Tue 04:04:12 PM 43.0333 -81.0167 270° West 400 460 32,000  Level Toronto Center
Tue 04:05:12 PM 43.0167 -81.1833 262° West 420 483 32,000  Level Toronto Center
Tue 04:06:12 PM 43.0167 -81.3500 270° West 420 483 32,000  Level Toronto Center
Tue 04:07:12 PM 43.0167 -81.5000 270° West 420 483 32,000  Level Toronto Center
Tue 04:08:12 PM 43.0167 -81.6667 270° West 410 472 32,000  Level Toronto Center
Tue 04:09:12 PM 43.0167 -81.8167 270° West 410 472 32,000  Level Toronto Center
Tue 04:10:12 PM 43.0000 -81.9833 262° West 410 472 32,000  Level Toronto Center
Tue 04:11:12 PM 43.0000 -82.1333 270° West 410 472 32,000  Level Toronto Center
Tue 04:12:12 PM 43.0000 -82.2833 270° West 410 472 32,000  Level Toronto Center
Tue 04:13:12 PM 43.0000 -82.4333 270° West 410 472 32,000  Level Toronto Center
Tue 04:14:12 PM 43.0000 -82.6000 270° West 410 472 32,000  Level Toronto Center
Tue 04:15:10 PM 43.0006 -82.7436 270° West 421 484 32,000  Level Cleveland Center
Tue 04:16:10 PM 42.9956 -82.8994 268° West 421 484 32,000  Level Cleveland Center
Tue 04:17:09 PM 42.9903 -83.0525 267° West 421 484 32,000  Level Cleveland Center
Tue 04:18:09 PM 42.9844 -83.2142 267° West 421 484 32,000  Level Cleveland Center
Tue 04:19:09 PM 42.9789 -83.3700 267° West 421 484 32,000  Level Cleveland Center
Tue 04:20:09 PM 42.9728 -83.5314 267° West 421 484 32,000  Level Cleveland Center
Tue 04:21:10 PM 42.9686 -83.6903 268° West 421 484 32,000  Level Cleveland Center
Tue 04:22:09 PM 42.9558 -83.8514 264° West 421 484 32,000  Level Cleveland Center
Tue 04:23:09 PM 42.9386 -84.0092 262° West 421 484 32,000  Level Cleveland Center
Tue 04:24:10 PM 42.9253 -84.1731 264° West 421 484 32,000  Level Cleveland Center
Tue 04:25:41 PM 42.9003 -84.4250 262° West 426 490 32,000  Level Chicago Center
Tue 04:26:43 PM 42.8836 -84.5833 262° West 423 487 32,000  Level Chicago Center
Tue 04:27:45 PM 42.8675 -84.7417 262° West 423 487 32,000  Level Chicago Center
Tue 04:28:47 PM 42.8519 -84.8994 262° West 421 484 32,000  Level Chicago Center
Tue 04:29:49 PM 42.8347 -85.0583 262° West 423 487 32,000  Level Chicago Center
Tue 04:30:51 PM 42.8172 -85.2172 262° West 424 488 32,000 -960 Level Chicago Center
Tue 04:31:54 PM 42.7964 -85.4056 261° West 421 484 30,000 -1,920 Descending Chicago Center
Tue 04:32:56 PM 42.7753 -85.5636 260° West 423 487 28,000 -2,032 Descending Chicago Center
Tue 04:33:58 PM 42.7461 -85.7208 256° West 426 490 25,800 -2,081 Descending Chicago Center
Tue 04:35:00 PM 42.7175 -85.8733 256° West 416 479 23,700 -2,032 Descending Chicago Center
Tue 04:36:02 PM 42.6911 -86.0239 257° West 410 472 21,600 -1,742 Descending Chicago Center
Tue 04:37:04 PM 42.6631 -86.1722 256° West 405 466 20,100 -774 Descending Chicago Center
Tue 04:38:06 PM 42.6381 -86.3147 257° West 394 453 20,000 -145 Descending Chicago Center
Tue 04:39:08 PM 42.6047 -86.4853 255° West 390 449 19,800 -581 Descending Chicago Center
Tue 04:40:10 PM 42.5778 -86.6283 256° West 392 451 18,800 -1,355 Descending Chicago Center
Tue 04:41:12 PM 42.5539 -86.7581 256° West 383 441 17,000 -2,081 Descending Chicago Center
Tue 04:42:14 PM 42.5169 -86.8861 249° West 346 398 14,500 -2,468 Descending Chicago Center
Tue 04:43:16 PM 42.4847 -87.0050 250° West 339 390 11,900 -2,177 Descending Chicago Center
Tue 04:44:18 PM 42.4522 -87.1167 249° West 324 373 10,000 -1,248 Descending Chicago Center
Tue 04:45:21 PM 42.4222 -87.2300 250° West 269 310 9,300 -480 Descending Chicago Center
Tue 04:46:23 PM 42.3906 -87.3139 243° Southwest 253 291 9,000 -145 Descending Chicago Center
Tue 04:47:25 PM 42.3519 -87.4006 239° Southwest 247 284 9,000 -194 Level Chicago Center
Tue 04:48:27 PM 42.3164 -87.4797 239° Southwest 247 284 8,600 -484 Descending Chicago Center
Tue 04:49:29 PM 42.2817 -87.5589 239° Southwest 247 284 8,000 -532 Descending Chicago Center
Tue 04:50:31 PM 42.2503 -87.6231 237° Southwest 211 243 7,500 -960 Descending Chicago Center
Tue 04:51:34 PM 42.2042 -87.6653 214° Southwest 200 230 6,000 -1,258 Descending Chicago Center
Tue 04:52:35 PM 42.1617 -87.7153 221° Southwest 201 231 4,900 -1,082 Descending Chicago Center

Login

Don't have an account? Register now (free) for customized features, flight alerts, and more!